Maryland AWOS List, Phone Numbers

USA |  
| Search AWOS

Rocky Mountain States: Montana | Wyoming | Colorado | New Mexico

Complete weather reports: Maryland

Legend: KFNL = METAR available Follow your local AWOS on AV Mobile = METAR available on AV Mobile
Station Maryland Location Frequency Phone
KAPGFAA ID APG, KAPG 051156Z 00000KT 7SM SCT070 OVC150 22/20 A2995 Follow KAPG on AV Mobile Phillips Army Air Field / Aberdeen
K61WICAO ID K61W Annapolis Coast Guard Station
KNAKICAO ID KNAK, KNAK 051154Z AUTO 31003KT 8SM 23/21 A2995 RMK AO2 SLP143 70008 T02330206 10244 20228 53011 $ Follow KNAK on AV Mobile ANNAPOLIS US NAVAL ACADEMY
KLWXICAO ID KLWX Baltimore / DC Nexrad
KDMHICAO ID KDMH, KDMH 051154Z AUTO 24/18 A2996 RMK AO1 SLP144 70008 T02390183 10250 20233 53012 Follow KDMH on AV Mobile BALTIMORE DOWNTOWN
KMTNFAA ID MTN, AWOS-3PT, KMTN 051150Z 00000KT 10SM SCT075 BKN140 BKN200 23/23 A2996 Follow KMTN on AV Mobile Baltimore / Martin 124.925 410-682-8848
KBWIFAA ID BWI, ASOS, KBWI 051154Z 27003KT 10SM FEW070 SCT140 BKN250 21/19 A2995 Follow KBWI on AV Mobile BALTIMORE-WASHINGTON INTERNATIONAL 410-691-1278
4MDFAA ID 4MD, Belfort PIER 7
KCGEFAA ID CGE, AWOS-3, KCGE 051154Z AUTO 00000KT 7SM CLR 22/21 A2994 RMK AO1 Follow KCGE on AV Mobile CAMBRIDGE 120.675 410-228-7559
KADWFAA ID ADW, KADW 051158Z AUTO 27003KT 10SM CLR 23/21 A2996 RMK AO2 SLP150 70016 T02330214 10233 20208 52010 Follow KADW on AV Mobile Camp Springs / Andrews Air Force Base
W32FAA ID W32, Belfort WASHINGTON EXECUTIVE/HYDE FIELD
KCGSFAA ID CGS, AWOS-3, KCGS 051150Z AUTO 00000KT 10SM CLR 21/21 A2996 RMK AO1 Follow KCGS on AV Mobile COLLEGE PARK 121.225 301-864-5497
K66WICAO ID K66W Cove Point Coast Guard Light Station
KCBEFAA ID CBE, AWOS-3, KCBE 051154Z AUTO 00000KT 10SM CLR 18/16 A3006 Follow KCBE on AV Mobile Cumberland, Greater Cumberland Regional Airport 128.625 304-738-0451
KESNFAA ID ESN, AWOS-3, KESN 051150Z 00000KT 5SM BR SCT120 OVC250 23/23 A2999 Follow KESN on AV Mobile Easton / Newman Field 124.475 410-822-2817
KFMEFAA ID FME, AWOS-3, KFME 051157Z AUTO 00000KT 5SM CLR 20/18 A2998 RMK AO1 Follow KFME on AV Mobile Fort Meade / Tipton 123.925
KJWXICAO ID KJWX Fort Ritchie
KFDKFAA ID FDK, AWOS-3, KFDK 051150Z VRB03KT 10SM SKC 21/21 A3000 Follow KFDK on AV Mobile Frederick, Frederick Municipal Airport 124.875 301-600-1457
KGAIFAA ID GAI, AWOS-3, KGAI 051155Z AUTO 00000KT 10SM FEW070 19/18 A3002 RMK AO1 70010 10210 20180 52010 Follow KGAI on AV Mobile GAITHERSBURG 128.275 301-977-2971
KHGRFAA ID HGR, ASOS, KHGR 051153Z 12003KT 10SM CLR 19/16 A2999 RMK AO2 SLP159 T01940156 10228 20194 53010 Follow KHGR on AV Mobile HAGERSTOWN REGIONAL AIRPORT 126.375 301-745-3497
K2W6FAA ID 2W6, AWOS-3, K2W6 051154Z AUTO 00000KT 7SM CLR 23/21 A2997 RMK AO1 Follow K2W6 on AV Mobile LEONARDTOWN 119.575 301-373-6514
K2G4FAA ID 2G4, AWOS-3, K2G4 051155Z AUTO 26003KT 10SM CLR 16/ A3010 RMK AO1 Follow K2G4 on AV Mobile OAKLAND 120.125 301-746-8443
KW30ICAO ID KW30 Ocean City
KN80ICAO ID KN80 Ocean City, Ocean City Municipal Airport
KOXBFAA ID OXB, ASOS, KOXB 051153Z AUTO A2993 RMK AO2 SLP136 6//// 7//// 51014 PWINO TSNO $ Follow KOXB on AV Mobile OCEAN CITY MUNICIPAL AIRPORT 119.025 410-213-1530
KNHKFAA ID NHK, KNHK 051152Z 24004KT 10SM BKN180 BKN250 24/23 A2994 RMK AO2 SLP139 T02440228 10256 20228 53008 Follow KNHK on AV Mobile NAS PATUXENT RIVER MD
KSBYFAA ID SBY, ASOS, KSBY 051154Z 00000KT 8SM CLR 22/21 A2993 Follow KSBY on AV Mobile SALISBURY-WICOMICO CTY REG 118.325 410-341-0868
KNUIFAA ID NUI, KNUI 041353Z AUTO 25009KT 10SM CLR 28/22 A2993 RMK AO2 SLP135 T02780222 Follow KNUI on AV Mobile KNUI WEBSTER FIELD ANNEX
KW29FAA ID W29, AWOS-3, KW29 051154Z AUTO 00000KT 10SM 23/22 A2995 RMK AO1 Follow KW29 on AV Mobile STEVENSVILLE 120.575 410-643-8795
K67WICAO ID K67W Stillpond Coast Guard Station
K65WICAO ID K65W Thomas Point Coast Guard Station
KDMWFAA ID DMW, AWOS-3, KDMW 051155Z AUTO 23003KT 10SM SCT070 21/17 A2999 RMK AO2 Follow KDMW on AV Mobile WESTMINSTER 121.25 410-876-1281

Click on the AV Mobile icon AV Mobile icon by any station to follow that AWOS feed on AirportView.net Mobile.

Garmin aera 796 $1999 at Avionics Specialists LLC
Bose A20 Aviation Headsets $995 at Avionics Specialists LLC